sensor_id;sensor_type;location;lat;lon;timestamp;P1;durP1;ratioP1;P2;durP2;ratioP2
13432;SDS011;6789;47.678;9.158;2023-04-25T00:01:31;5.90;;;2.20;;
13432;SDS011;6789;47.678;9.158;2023-04-25T00:06:40;5.10;;;2.30;;
13432;SDS011;6789;47.678;9.158;2023-04-25T00:11:32;4.63;;;2.30;;
13432;SDS011;6789;47.678;9.158;2023-04-25T00:21:44;5.70;;;2.57;;
13432;SDS011;6789;47.678;9.158;2023-04-25T00:26:46;4.93;;;2.43;;
13432;SDS011;6789;47.678;9.158;2023-04-25T00:31:38;5.57;;;2.23;;
13432;SDS011;6789;47.678;9.158;2023-04-25T00:36:30;5.27;;;2.50;;
13432;SDS011;6789;47.678;9.158;2023-04-25T00:41:22;6.90;;;2.23;;
13432;SDS011;6789;47.678;9.158;2023-04-25T00:46:16;4.30;;;2.07;;
13432;SDS011;6789;47.678;9.158;2023-04-25T00:51:07;5.73;;;2.03;;
13432;SDS011;6789;47.678;9.158;2023-04-25T00:56:06;2.57;;;1.77;;
13432;SDS011;6789;47.678;9.158;2023-04-25T01:00:58;3.37;;;2.00;;
13432;SDS011;6789;47.678;9.158;2023-04-25T01:05:51;6.20;;;1.87;;
13432;SDS011;6789;47.678;9.158;2023-04-25T01:10:44;3.70;;;1.77;;
13432;SDS011;6789;47.678;9.158;2023-04-25T01:15:35;3.53;;;1.50;;
13432;SDS011;6789;47.678;9.158;2023-04-25T01:20:27;2.63;;;1.37;;
13432;SDS011;6789;47.678;9.158;2023-04-25T01:25:20;2.43;;;1.50;;
13432;SDS011;6789;47.678;9.158;2023-04-25T01:30:13;3.37;;;1.70;;
13432;SDS011;6789;47.678;9.158;2023-04-25T01:35:06;4.50;;;2.03;;
13432;SDS011;6789;47.678;9.158;2023-04-25T01:40:02;3.23;;;1.63;;
13432;SDS011;6789;47.678;9.158;2023-04-25T01:44:56;2.63;;;1.70;;
13432;SDS011;6789;47.678;9.158;2023-04-25T01:49:48;5.20;;;1.80;;
13432;SDS011;6789;47.678;9.158;2023-04-25T01:54:40;5.93;;;2.10;;
13432;SDS011;6789;47.678;9.158;2023-04-25T01:59:35;5.20;;;2.00;;
13432;SDS011;6789;47.678;9.158;2023-04-25T02:04:27;2.60;;;1.93;;
13432;SDS011;6789;47.678;9.158;2023-04-25T02:09:19;4.60;;;2.17;;
13432;SDS011;6789;47.678;9.158;2023-04-25T02:14:11;2.67;;;1.77;;
13432;SDS011;6789;47.678;9.158;2023-04-25T02:19:03;3.77;;;1.97;;
13432;SDS011;6789;47.678;9.158;2023-04-25T02:23:55;3.00;;;1.97;;
13432;SDS011;6789;47.678;9.158;2023-04-25T02:28:47;4.70;;;2.00;;
13432;SDS011;6789;47.678;9.158;2023-04-25T02:33:39;6.73;;;2.50;;
13432;SDS011;6789;47.678;9.158;2023-04-25T02:38:31;4.10;;;2.10;;
13432;SDS011;6789;47.678;9.158;2023-04-25T02:43:22;4.50;;;2.37;;
13432;SDS011;6789;47.678;9.158;2023-04-25T02:48:14;4.33;;;2.20;;
13432;SDS011;6789;47.678;9.158;2023-04-25T02:53:06;3.13;;;2.17;;
13432;SDS011;6789;47.678;9.158;2023-04-25T02:58:12;4.60;;;2.13;;
13432;SDS011;6789;47.678;9.158;2023-04-25T03:03:04;4.73;;;2.50;;
13432;SDS011;6789;47.678;9.158;2023-04-25T03:07:56;4.87;;;2.50;;
13432;SDS011;6789;47.678;9.158;2023-04-25T03:12:48;5.77;;;2.80;;
13432;SDS011;6789;47.678;9.158;2023-04-25T03:17:39;4.87;;;2.60;;
13432;SDS011;6789;47.678;9.158;2023-04-25T03:22:31;4.73;;;2.73;;
13432;SDS011;6789;47.678;9.158;2023-04-25T03:27:23;5.97;;;2.60;;
13432;SDS011;6789;47.678;9.158;2023-04-25T03:32:15;3.20;;;2.37;;
13432;SDS011;6789;47.678;9.158;2023-04-25T03:37:07;5.30;;;2.57;;
13432;SDS011;6789;47.678;9.158;2023-04-25T03:41:58;5.13;;;2.63;;
13432;SDS011;6789;47.678;9.158;2023-04-25T03:46:50;4.00;;;2.53;;
13432;SDS011;6789;47.678;9.158;2023-04-25T03:51:42;3.33;;;2.43;;
13432;SDS011;6789;47.678;9.158;2023-04-25T03:56:34;3.70;;;2.90;;
13432;SDS011;6789;47.678;9.158;2023-04-25T04:01:26;8.00;;;2.87;;
13432;SDS011;6789;47.678;9.158;2023-04-25T04:06:18;8.97;;;3.00;;
13432;SDS011;6789;47.678;9.158;2023-04-25T04:11:11;7.37;;;2.77;;
13432;SDS011;6789;47.678;9.158;2023-04-25T04:16:04;5.80;;;2.90;;
13432;SDS011;6789;47.678;9.158;2023-04-25T04:20:56;5.00;;;2.83;;
13432;SDS011;6789;47.678;9.158;2023-04-25T04:25:50;7.03;;;3.17;;
13432;SDS011;6789;47.678;9.158;2023-04-25T04:30:47;6.80;;;2.97;;
13432;SDS011;6789;47.678;9.158;2023-04-25T04:35:42;10.73;;;3.30;;
13432;SDS011;6789;47.678;9.158;2023-04-25T04:40:34;9.37;;;3.03;;
13432;SDS011;6789;47.678;9.158;2023-04-25T04:45:25;6.60;;;3.30;;
13432;SDS011;6789;47.678;9.158;2023-04-25T04:50:18;6.53;;;2.90;;
13432;SDS011;6789;47.678;9.158;2023-04-25T04:55:11;6.07;;;3.10;;
13432;SDS011;6789;47.678;9.158;2023-04-25T05:00:03;7.90;;;3.37;;
13432;SDS011;6789;47.678;9.158;2023-04-25T05:05:01;4.70;;;2.87;;
13432;SDS011;6789;47.678;9.158;2023-04-25T05:09:53;5.70;;;3.20;;
13432;SDS011;6789;47.678;9.158;2023-04-25T05:14:44;6.23;;;3.30;;
13432;SDS011;6789;47.678;9.158;2023-04-25T05:19:36;6.30;;;3.03;;
13432;SDS011;6789;47.678;9.158;2023-04-25T05:24:29;7.43;;;2.87;;
13432;SDS011;6789;47.678;9.158;2023-04-25T05:29:21;5.63;;;3.00;;
13432;SDS011;6789;47.678;9.158;2023-04-25T05:34:13;6.27;;;2.47;;
13432;SDS011;6789;47.678;9.158;2023-04-25T05:39:05;5.07;;;2.53;;
13432;SDS011;6789;47.678;9.158;2023-04-25T05:44:32;6.17;;;2.63;;
13432;SDS011;6789;47.678;9.158;2023-04-25T05:49:28;5.10;;;2.67;;
13432;SDS011;6789;47.678;9.158;2023-04-25T05:54:19;6.03;;;2.93;;
13432;SDS011;6789;47.678;9.158;2023-04-25T05:59:11;5.20;;;2.60;;
13432;SDS011;6789;47.678;9.158;2023-04-25T06:04:03;7.63;;;3.53;;
13432;SDS011;6789;47.678;9.158;2023-04-25T06:09:02;4.63;;;2.50;;
13432;SDS011;6789;47.678;9.158;2023-04-25T06:13:54;7.90;;;2.87;;
13432;SDS011;6789;47.678;9.158;2023-04-25T06:18:46;6.43;;;2.83;;
13432;SDS011;6789;47.678;9.158;2023-04-25T06:23:38;7.67;;;3.00;;
13432;SDS011;6789;47.678;9.158;2023-04-25T06:28:29;5.17;;;2.57;;
13432;SDS011;6789;47.678;9.158;2023-04-25T06:33:21;2.63;;;2.30;;
13432;SDS011;6789;47.678;9.158;2023-04-25T06:38:29;8.27;;;4.80;;
13432;SDS011;6789;47.678;9.158;2023-04-25T06:43:23;6.37;;;2.83;;
13432;SDS011;6789;47.678;9.158;2023-04-25T06:48:15;4.20;;;1.90;;
13432;SDS011;6789;47.678;9.158;2023-04-25T06:53:08;3.83;;;2.33;;
13432;SDS011;6789;47.678;9.158;2023-04-25T06:57:59;5.70;;;2.20;;
13432;SDS011;6789;47.678;9.158;2023-04-25T07:02:51;6.72;;;2.30;;
13432;SDS011;6789;47.678;9.158;2023-04-25T07:07:47;4.93;;;2.00;;
13432;SDS011;6789;47.678;9.158;2023-04-25T07:12:39;5.03;;;2.20;;
13432;SDS011;6789;47.678;9.158;2023-04-25T07:17:32;4.83;;;2.10;;
13432;SDS011;6789;47.678;9.158;2023-04-25T07:22:26;4.37;;;2.20;;
13432;SDS011;6789;47.678;9.158;2023-04-25T07:27:18;4.27;;;2.37;;
13432;SDS011;6789;47.678;9.158;2023-04-25T07:32:11;7.17;;;2.07;;
13432;SDS011;6789;47.678;9.158;2023-04-25T07:37:05;4.50;;;2.23;;
13432;SDS011;6789;47.678;9.158;2023-04-25T07:41:57;3.93;;;1.97;;
13432;SDS011;6789;47.678;9.158;2023-04-25T07:46:49;3.27;;;1.90;;
13432;SDS011;6789;47.678;9.158;2023-04-25T07:51:42;4.13;;;2.30;;
13432;SDS011;6789;47.678;9.158;2023-04-25T07:56:34;2.87;;;2.00;;
13432;SDS011;6789;47.678;9.158;2023-04-25T08:01:42;4.17;;;2.17;;
13432;SDS011;6789;47.678;9.158;2023-04-25T08:06:34;3.03;;;2.03;;
13432;SDS011;6789;47.678;9.158;2023-04-25T08:11:27;4.40;;;2.43;;
13432;SDS011;6789;47.678;9.158;2023-04-25T08:16:19;5.40;;;2.20;;
13432;SDS011;6789;47.678;9.158;2023-04-25T08:21:12;3.57;;;2.17;;
13432;SDS011;6789;47.678;9.158;2023-04-25T08:26:12;3.60;;;2.07;;
13432;SDS011;6789;47.678;9.158;2023-04-25T08:31:18;4.60;;;2.13;;
13432;SDS011;6789;47.678;9.158;2023-04-25T08:36:25;3.63;;;2.17;;
13432;SDS011;6789;47.678;9.158;2023-04-25T08:41:22;2.57;;;1.90;;
13432;SDS011;6789;47.678;9.158;2023-04-25T08:46:17;3.03;;;2.13;;
13432;SDS011;6789;47.678;9.158;2023-04-25T08:51:09;3.43;;;2.00;;
13432;SDS011;6789;47.678;9.158;2023-04-25T08:56:06;5.50;;;2.27;;
13432;SDS011;6789;47.678;9.158;2023-04-25T09:01:02;3.13;;;2.37;;
13432;SDS011;6789;47.678;9.158;2023-04-25T09:06:11;4.90;;;2.40;;
13432;SDS011;6789;47.678;9.158;2023-04-25T09:11:18;3.87;;;2.20;;
13432;SDS011;6789;47.678;9.158;2023-04-25T09:16:13;4.27;;;2.60;;
13432;SDS011;6789;47.678;9.158;2023-04-25T09:21:09;3.03;;;1.73;;
13432;SDS011;6789;47.678;9.158;2023-04-25T09:26:06;2.87;;;1.83;;
13432;SDS011;6789;47.678;9.158;2023-04-25T09:31:00;2.23;;;1.80;;
13432;SDS011;6789;47.678;9.158;2023-04-25T09:36:18;2.73;;;1.63;;
13432;SDS011;6789;47.678;9.158;2023-04-25T09:41:27;4.03;;;1.77;;
13432;SDS011;6789;47.678;9.158;2023-04-25T09:46:21;3.53;;;1.50;;
13432;SDS011;6789;47.678;9.158;2023-04-25T09:51:16;7.70;;;2.07;;
13432;SDS011;6789;47.678;9.158;2023-04-25T09:56:10;2.00;;;1.40;;
13432;SDS011;6789;47.678;9.158;2023-04-25T10:01:08;4.63;;;1.40;;
13432;SDS011;6789;47.678;9.158;2023-04-25T10:06:03;1.43;;;1.10;;
13432;SDS011;6789;47.678;9.158;2023-04-25T10:11:02;3.10;;;1.40;;
13432;SDS011;6789;47.678;9.158;2023-04-25T10:15:58;1.53;;;1.10;;
13432;SDS011;6789;47.678;9.158;2023-04-25T10:21:06;1.23;;;1.13;;
13432;SDS011;6789;47.678;9.158;2023-04-25T10:25:59;1.40;;;0.97;;
13432;SDS011;6789;47.678;9.158;2023-04-25T10:31:01;1.90;;;1.07;;
13432;SDS011;6789;47.678;9.158;2023-04-25T10:36:12;4.47;;;1.70;;
13432;SDS011;6789;47.678;9.158;2023-04-25T10:41:13;0.80;;;0.80;;
13432;SDS011;6789;47.678;9.158;2023-04-25T10:46:28;1.40;;;0.90;;
13432;SDS011;6789;47.678;9.158;2023-04-25T10:51:33;0.70;;;0.70;;
13432;SDS011;6789;47.678;9.158;2023-04-25T10:56:45;1.67;;;1.40;;
13432;SDS011;6789;47.678;9.158;2023-04-25T11:01:41;0.70;;;0.53;;
13432;SDS011;6789;47.678;9.158;2023-04-25T11:07:23;1.30;;;0.63;;
13432;SDS011;6789;47.678;9.158;2023-04-25T11:12:29;3.63;;;0.50;;
13432;SDS011;6789;47.678;9.158;2023-04-25T11:17:24;0.57;;;0.50;;
13432;SDS011;6789;47.678;9.158;2023-04-25T11:22:18;0.40;;;0.40;;
13432;SDS011;6789;47.678;9.158;2023-04-25T11:27:12;1.17;;;0.50;;
13432;SDS011;6789;47.678;9.158;2023-04-25T11:32:06;0.40;;;0.40;;
13432;SDS011;6789;47.678;9.158;2023-04-25T11:37:01;1.50;;;0.17;;
13432;SDS011;6789;47.678;9.158;2023-04-25T11:41:55;0.37;;;0.37;;
13432;SDS011;6789;47.678;9.158;2023-04-25T11:46:48;0.50;;;0.40;;
13432;SDS011;6789;47.678;9.158;2023-04-25T11:51:42;0.20;;;0.20;;
13432;SDS011;6789;47.678;9.158;2023-04-25T11:56:52;0.43;;;0.20;;
13432;SDS011;6789;47.678;9.158;2023-04-25T12:01:48;0.23;;;0.23;;
13432;SDS011;6789;47.678;9.158;2023-04-25T12:06:46;1.17;;;0.10;;
13432;SDS011;6789;47.678;9.158;2023-04-25T12:11:48;1.37;;;0.40;;
13432;SDS011;6789;47.678;9.158;2023-04-25T12:16:48;1.00;;;0.40;;
13432;SDS011;6789;47.678;9.158;2023-04-25T12:21:54;0.77;;;0.23;;
13432;SDS011;6789;47.678;9.158;2023-04-25T12:26:50;0.90;;;0.40;;
13432;SDS011;6789;47.678;9.158;2023-04-25T12:32:05;2.13;;;0.20;;
13432;SDS011;6789;47.678;9.158;2023-04-25T12:37:11;1.60;;;0.27;;
13432;SDS011;6789;47.678;9.158;2023-04-25T12:42:04;1.17;;;0.20;;
13432;SDS011;6789;47.678;9.158;2023-04-25T12:47:12;0.53;;;0.37;;
13432;SDS011;6789;47.678;9.158;2023-04-25T12:52:06;0.63;;;0.20;;
13432;SDS011;6789;47.678;9.158;2023-04-25T12:57:14;0.60;;;0.40;;
13432;SDS011;6789;47.678;9.158;2023-04-25T13:02:20;0.20;;;0.20;;
13432;SDS011;6789;47.678;9.158;2023-04-25T13:07:14;0.40;;;0.40;;
13432;SDS011;6789;47.678;9.158;2023-04-25T13:12:21;0.63;;;0.40;;
13432;SDS011;6789;47.678;9.158;2023-04-25T13:17:14;0.73;;;0.40;;
13432;SDS011;6789;47.678;9.158;2023-04-25T13:22:07;2.10;;;0.60;;
13432;SDS011;6789;47.678;9.158;2023-04-25T13:27:13;0.67;;;0.50;;
13432;SDS011;6789;47.678;9.158;2023-04-25T13:32:09;2.97;;;0.83;;
13432;SDS011;6789;47.678;9.158;2023-04-25T13:37:02;1.07;;;0.60;;
13432;SDS011;6789;47.678;9.158;2023-04-25T13:42:10;1.73;;;0.73;;
13432;SDS011;6789;47.678;9.158;2023-04-25T13:47:02;3.15;;;0.85;;
13432;SDS011;6789;47.678;9.158;2023-04-25T13:51:56;2.13;;;1.10;;
13432;SDS011;6789;47.678;9.158;2023-04-25T13:56:56;1.20;;;0.90;;
13432;SDS011;6789;47.678;9.158;2023-04-25T14:02:04;1.50;;;0.55;;
13432;SDS011;6789;47.678;9.158;2023-04-25T14:07:10;1.45;;;0.68;;
13432;SDS011;6789;47.678;9.158;2023-04-25T14:12:04;4.00;;;0.80;;
13432;SDS011;6789;47.678;9.158;2023-04-25T14:17:11;0.98;;;0.63;;
13432;SDS011;6789;47.678;9.158;2023-04-25T14:22:17;1.45;;;0.90;;
13432;SDS011;6789;47.678;9.158;2023-04-25T14:27:24;2.08;;;0.93;;
13432;SDS011;6789;47.678;9.158;2023-04-25T14:32:31;1.83;;;0.98;;
13432;SDS011;6789;47.678;9.158;2023-04-25T14:37:37;0.90;;;0.90;;
13432;SDS011;6789;47.678;9.158;2023-04-25T14:42:40;1.92;;;0.57;;
13432;SDS011;6789;47.678;9.158;2023-04-25T14:47:34;1.73;;;0.73;;
13432;SDS011;6789;47.678;9.158;2023-04-25T14:52:30;2.93;;;0.77;;
13432;SDS011;6789;47.678;9.158;2023-04-25T14:57:36;0.77;;;0.60;;
13432;SDS011;6789;47.678;9.158;2023-04-25T15:02:45;0.80;;;0.70;;
13432;SDS011;6789;47.678;9.158;2023-04-25T15:07:39;2.88;;;0.80;;
13432;SDS011;6789;47.678;9.158;2023-04-25T15:12:32;1.03;;;0.93;;
13432;SDS011;6789;47.678;9.158;2023-04-25T15:17:24;1.60;;;0.73;;
13432;SDS011;6789;47.678;9.158;2023-04-25T15:22:17;0.93;;;0.73;;
13432;SDS011;6789;47.678;9.158;2023-04-25T15:27:22;0.93;;;0.73;;
13432;SDS011;6789;47.678;9.158;2023-04-25T15:32:35;2.17;;;0.70;;
13432;SDS011;6789;47.678;9.158;2023-04-25T15:37:43;1.83;;;0.80;;
13432;SDS011;6789;47.678;9.158;2023-04-25T15:42:47;2.43;;;0.77;;
13432;SDS011;6789;47.678;9.158;2023-04-25T15:47:57;1.93;;;0.80;;
13432;SDS011;6789;47.678;9.158;2023-04-25T15:52:58;1.00;;;0.73;;
13432;SDS011;6789;47.678;9.158;2023-04-25T15:58:04;1.53;;;1.30;;
13432;SDS011;6789;47.678;9.158;2023-04-25T16:03:05;2.03;;;1.00;;
13432;SDS011;6789;47.678;9.158;2023-04-25T16:08:05;2.53;;;0.73;;
13432;SDS011;6789;47.678;9.158;2023-04-25T16:12:57;1.90;;;1.00;;
13432;SDS011;6789;47.678;9.158;2023-04-25T16:17:53;1.70;;;0.80;;
13432;SDS011;6789;47.678;9.158;2023-04-25T16:22:45;2.27;;;1.00;;
13432;SDS011;6789;47.678;9.158;2023-04-25T16:27:45;0.90;;;0.80;;
13432;SDS011;6789;47.678;9.158;2023-04-25T16:32:38;0.80;;;0.73;;
13432;SDS011;6789;47.678;9.158;2023-04-25T16:37:36;0.97;;;0.73;;
13432;SDS011;6789;47.678;9.158;2023-04-25T16:42:28;0.60;;;0.60;;
13432;SDS011;6789;47.678;9.158;2023-04-25T16:47:34;1.40;;;0.80;;
13432;SDS011;6789;47.678;9.158;2023-04-25T16:52:26;0.60;;;0.50;;
13432;SDS011;6789;47.678;9.158;2023-04-25T16:57:23;0.90;;;0.63;;
13432;SDS011;6789;47.678;9.158;2023-04-25T17:02:29;0.67;;;0.60;;
13432;SDS011;6789;47.678;9.158;2023-04-25T17:07:29;0.60;;;0.60;;
13432;SDS011;6789;47.678;9.158;2023-04-25T17:12:35;0.87;;;0.70;;
13432;SDS011;6789;47.678;9.158;2023-04-25T17:17:40;1.40;;;0.70;;
13432;SDS011;6789;47.678;9.158;2023-04-25T17:22:50;0.87;;;0.80;;
13432;SDS011;6789;47.678;9.158;2023-04-25T17:27:44;0.80;;;0.50;;
13432;SDS011;6789;47.678;9.158;2023-04-25T17:32:50;1.17;;;0.70;;
13432;SDS011;6789;47.678;9.158;2023-04-25T17:37:59;0.67;;;0.67;;
13432;SDS011;6789;47.678;9.158;2023-04-25T17:43:07;2.63;;;0.70;;
13432;SDS011;6789;47.678;9.158;2023-04-25T17:48:07;2.07;;;1.00;;
13432;SDS011;6789;47.678;9.158;2023-04-25T17:53:03;2.37;;;1.03;;
13432;SDS011;6789;47.678;9.158;2023-04-25T17:58:09;1.53;;;1.00;;
13432;SDS011;6789;47.678;9.158;2023-04-25T18:03:16;0.70;;;0.70;;
13432;SDS011;6789;47.678;9.158;2023-04-25T18:08:08;1.30;;;0.53;;
13432;SDS011;6789;47.678;9.158;2023-04-25T18:13:14;0.67;;;0.67;;
13432;SDS011;6789;47.678;9.158;2023-04-25T18:18:21;1.40;;;0.70;;
13432;SDS011;6789;47.678;9.158;2023-04-25T18:23:24;1.17;;;0.70;;
13432;SDS011;6789;47.678;9.158;2023-04-25T18:28:18;1.57;;;0.80;;
13432;SDS011;6789;47.678;9.158;2023-04-25T18:33:10;0.67;;;0.63;;
13432;SDS011;6789;47.678;9.158;2023-04-25T18:38:17;1.80;;;0.80;;
13432;SDS011;6789;47.678;9.158;2023-04-25T18:43:26;1.40;;;0.80;;
13432;SDS011;6789;47.678;9.158;2023-04-25T18:48:32;0.87;;;0.77;;
13432;SDS011;6789;47.678;9.158;2023-04-25T18:53:38;0.63;;;0.60;;
13432;SDS011;6789;47.678;9.158;2023-04-25T18:58:40;0.80;;;0.60;;
13432;SDS011;6789;47.678;9.158;2023-04-25T19:03:38;1.00;;;0.90;;
13432;SDS011;6789;47.678;9.158;2023-04-25T19:08:44;1.60;;;0.90;;
13432;SDS011;6789;47.678;9.158;2023-04-25T19:13:51;1.30;;;0.77;;
13432;SDS011;6789;47.678;9.158;2023-04-25T19:18:45;0.60;;;0.60;;
13432;SDS011;6789;47.678;9.158;2023-04-25T19:23:39;1.43;;;0.57;;
13432;SDS011;6789;47.678;9.158;2023-04-25T19:29:07;1.80;;;0.90;;
13432;SDS011;6789;47.678;9.158;2023-04-25T19:34:13;1.20;;;1.00;;
13432;SDS011;6789;47.678;9.158;2023-04-25T19:39:06;2.03;;;1.40;;
13432;SDS011;6789;47.678;9.158;2023-04-25T19:43:59;3.37;;;1.50;;
13432;SDS011;6789;47.678;9.158;2023-04-25T19:49:14;2.77;;;1.30;;
13432;SDS011;6789;47.678;9.158;2023-04-25T19:54:13;3.47;;;1.33;;
13432;SDS011;6789;47.678;9.158;2023-04-25T19:59:06;1.63;;;1.20;;
13432;SDS011;6789;47.678;9.158;2023-04-25T20:04:01;1.30;;;1.20;;
13432;SDS011;6789;47.678;9.158;2023-04-25T20:08:54;1.17;;;0.93;;
13432;SDS011;6789;47.678;9.158;2023-04-25T20:13:47;1.30;;;1.00;;
13432;SDS011;6789;47.678;9.158;2023-04-25T20:18:52;1.73;;;1.03;;
13432;SDS011;6789;47.678;9.158;2023-04-25T20:23:45;1.07;;;0.90;;
13432;SDS011;6789;47.678;9.158;2023-04-25T20:28:37;1.50;;;0.70;;
13432;SDS011;6789;47.678;9.158;2023-04-25T20:33:44;0.90;;;0.90;;
13432;SDS011;6789;47.678;9.158;2023-04-25T20:38:51;1.17;;;1.07;;
13432;SDS011;6789;47.678;9.158;2023-04-25T20:43:58;1.10;;;0.90;;
13432;SDS011;6789;47.678;9.158;2023-04-25T20:48:51;1.40;;;1.00;;
13432;SDS011;6789;47.678;9.158;2023-04-25T20:54:31;0.90;;;0.90;;
13432;SDS011;6789;47.678;9.158;2023-04-25T20:59:54;1.10;;;1.00;;
13432;SDS011;6789;47.678;9.158;2023-04-25T21:05:18;1.33;;;1.23;;
13432;SDS011;6789;47.678;9.158;2023-04-25T21:10:52;0.93;;;0.87;;
13432;SDS011;6789;47.678;9.158;2023-04-25T21:15:51;0.57;;;0.57;;
13432;SDS011;6789;47.678;9.158;2023-04-25T21:20:57;1.20;;;0.83;;
13432;SDS011;6789;47.678;9.158;2023-04-25T21:25:53;1.90;;;0.90;;
13432;SDS011;6789;47.678;9.158;2023-04-25T21:30:59;0.90;;;0.90;;
13432;SDS011;6789;47.678;9.158;2023-04-25T21:36:09;3.00;;;1.10;;
13432;SDS011;6789;47.678;9.158;2023-04-25T21:41:19;0.90;;;0.80;;
13432;SDS011;6789;47.678;9.158;2023-04-25T21:46:47;1.57;;;1.20;;
13432;SDS011;6789;47.678;9.158;2023-04-25T21:51:39;1.90;;;1.60;;
13432;SDS011;6789;47.678;9.158;2023-04-25T21:56:31;1.50;;;1.20;;
13432;SDS011;6789;47.678;9.158;2023-04-25T22:01:48;1.60;;;1.50;;
13432;SDS011;6789;47.678;9.158;2023-04-25T22:06:43;1.50;;;1.40;;
13432;SDS011;6789;47.678;9.158;2023-04-25T22:11:51;1.73;;;1.33;;
13432;SDS011;6789;47.678;9.158;2023-04-25T22:17:17;1.63;;;1.20;;
13432;SDS011;6789;47.678;9.158;2023-04-25T22:22:42;2.13;;;1.20;;
13432;SDS011;6789;47.678;9.158;2023-04-25T22:28:12;1.10;;;1.00;;
13432;SDS011;6789;47.678;9.158;2023-04-25T22:34:02;1.20;;;1.10;;
13432;SDS011;6789;47.678;9.158;2023-04-25T22:39:48;1.90;;;1.20;;
13432;SDS011;6789;47.678;9.158;2023-04-25T22:45:24;1.63;;;1.30;;
13432;SDS011;6789;47.678;9.158;2023-04-25T22:50:36;1.07;;;0.90;;
13432;SDS011;6789;47.678;9.158;2023-04-25T22:55:31;1.20;;;1.07;;
13432;SDS011;6789;47.678;9.158;2023-04-25T23:00:56;1.20;;;1.10;;
13432;SDS011;6789;47.678;9.158;2023-04-25T23:05:49;0.97;;;0.87;;
13432;SDS011;6789;47.678;9.158;2023-04-25T23:10:40;1.13;;;1.03;;
13432;SDS011;6789;47.678;9.158;2023-04-25T23:15:35;0.90;;;0.90;;
13432;SDS011;6789;47.678;9.158;2023-04-25T23:20:27;1.97;;;1.20;;
13432;SDS011;6789;47.678;9.158;2023-04-25T23:25:20;1.10;;;1.00;;
13432;SDS011;6789;47.678;9.158;2023-04-25T23:30:11;2.20;;;1.20;;
13432;SDS011;6789;47.678;9.158;2023-04-25T23:35:04;1.90;;;1.37;;
13432;SDS011;6789;47.678;9.158;2023-04-25T23:39:57;1.27;;;1.17;;
13432;SDS011;6789;47.678;9.158;2023-04-25T23:44:48;1.80;;;1.17;;
13432;SDS011;6789;47.678;9.158;2023-04-25T23:49:40;1.40;;;1.30;;
13432;SDS011;6789;47.678;9.158;2023-04-25T23:54:32;1.13;;;1.03;;
13432;SDS011;6789;47.678;9.158;2023-04-25T23:59:23;1.90;;;1.40;;
